Time;durP1;ratioP1;P1;durP2;ratioP2;P2;SDS_P1;SDS_P2;PMS_P1;PMS_P2;Temp;Humidity;BMP_temperature;BMP_pressure;BME280_temperature;BME280_humidity;BME280_pressure;Samples;Min_cycle;Max_cycle;Signal;HPM_P1;HPM_P2
2022/10/01 06:02:35;;;;;;;;;0.00;0.00;;;;;;;;5002544;28;46031;-69
2022/10/01 06:05:00;;;;;;;;;0.00;0.00;;;;;;;;5018491;28;45510;-69
2022/10/01 06:07:29;;;;;;;;;0.00;0.00;;;;;;;;5017110;28;45365;-69
2022/10/01 06:09:54;;;;;;;;;2.00;0.00;;;;;;;;5012234;28;45639;-69
2022/10/01 06:12:20;;;;;;;;;0.00;0.00;;;;;;;;5012389;28;46059;-68
2022/10/01 06:14:45;;;;;;;;;0.00;0.00;;;;;;;;5009646;28;45964;-68
2022/10/01 06:17:10;;;;;;;;;0.00;0.00;;;;;;;;5018706;28;45541;-69
2022/10/01 06:19:35;;;;;;;;;0.67;0.67;;;;;;;;5013127;28;45434;-68
2022/10/01 06:22:00;;;;;;;;;0.00;0.00;;;;;;;;5014646;28;45692;-69
2022/10/01 06:24:26;;;;;;;;;1.00;0.00;;;;;;;;5016506;28;45555;-68
2022/10/01 06:26:51;;;;;;;;;4.67;1.33;;;;;;;;5013377;28;45562;-67
2022/10/01 06:29:16;;;;;;;;;0.00;0.00;;;;;;;;4992701;28;47165;-68
2022/10/01 06:31:41;;;;;;;;;0.00;0.00;;;;;;;;4981782;28;48178;-68
2022/10/01 06:34:06;;;;;;;;;1.00;0.00;;;;;;;;4993847;28;45855;-69
2022/10/01 06:36:32;;;;;;;;;1.67;1.67;;;;;;;;4987616;28;45461;-69
2022/10/01 06:38:58;;;;;;;;;0.67;0.00;;;;;;;;5019537;28;45413;-68
2022/10/01 06:41:23;;;;;;;;;1.33;1.00;;;;;;;;5013372;28;46250;-68
2022/10/01 06:43:49;;;;;;;;;1.00;0.00;;;;;;;;4997862;28;45689;-68
2022/10/01 06:46:14;;;;;;;;;0.67;0.33;;;;;;;;5012905;28;45728;-68
2022/10/01 06:48:39;;;;;;;;;0.00;0.00;;;;;;;;5010983;28;45312;-68
2022/10/01 06:51:04;;;;;;;;;3.33;1.00;;;;;;;;5009744;28;45714;-70
2022/10/01 06:53:30;;;;;;;;;1.33;0.67;;;;;;;;4993522;28;45724;-69
2022/10/01 06:55:56;;;;;;;;;1.00;1.00;;;;;;;;4995435;28;45722;-69
2022/10/01 06:58:25;;;;;;;;;0.33;0.33;;;;;;;;4996107;28;45707;-69
2022/10/01 07:00:50;;;;;;;;;1.33;1.00;;;;;;;;5008572;28;46294;-69
2022/10/01 07:03:17;;;;;;;;;4.00;1.00;;;;;;;;5013155;28;45416;-70
2022/10/01 07:05:42;;;;;;;;;1.00;0.00;;;;;;;;5013842;28;45320;-69
2022/10/01 07:08:08;;;;;;;;;1.00;1.00;;;;;;;;5018715;28;45462;-69
2022/10/01 07:10:34;;;;;;;;;1.00;1.00;;;;;;;;4994729;28;46001;-69
2022/10/01 07:13:09;;;;;;;;;3.33;2.00;;;;;;;;5013414;28;45554;-69
2022/10/01 07:15:34;;;;;;;;;0.00;0.00;;;;;;;;5014079;28;45522;-69
2022/10/01 07:18:00;;;;;;;;;2.00;2.00;;;;;;;;5013985;28;45590;-69
2022/10/01 07:20:26;;;;;;;;;1.67;1.00;;;;;;;;4991497;28;48313;-69
2022/10/01 07:22:55;;;;;;;;;3.00;2.00;;;;;;;;4992899;28;46767;-69
2022/10/01 07:25:20;;;;;;;;;2.00;2.00;;;;;;;;5012673;28;45462;-69
2022/10/01 07:27:46;;;;;;;;;2.00;1.67;;;;;;;;4998255;28;45509;-69
2022/10/01 07:30:11;;;;;;;;;1.67;1.00;;;;;;;;4998446;28;48243;-71
2022/10/01 07:32:36;;;;;;;;;3.00;1.67;;;;;;;;4999624;28;45307;-69
2022/10/01 07:35:04;;;;;;;;;3.00;3.00;;;;;;;;5000534;28;45381;-69
2022/10/01 07:37:30;;;;;;;;;2.33;2.00;;;;;;;;4991356;28;45407;-69
2022/10/01 07:39:55;;;;;;;;;2.00;2.00;;;;;;;;5000215;28;47613;-72
2022/10/01 07:42:21;;;;;;;;;4.00;0.33;;;;;;;;5000295;28;45818;-69
2022/10/01 07:44:46;;;;;;;;;2.67;1.00;;;;;;;;5009810;28;45345;-70
2022/10/01 07:47:11;;;;;;;;;2.00;1.00;;;;;;;;5010302;28;45352;-70
2022/10/01 07:49:36;;;;;;;;;1.00;1.00;;;;;;;;5009214;28;45357;-69
2022/10/01 07:52:02;;;;;;;;;1.67;1.33;;;;;;;;5012718;28;45554;-69
2022/10/01 07:54:27;;;;;;;;;1.67;1.33;;;;;;;;5015153;28;45374;-69
2022/10/01 07:56:54;;;;;;;;;2.00;2.00;;;;;;;;4996428;28;45400;-70
2022/10/01 07:59:23;;;;;;;;;4.00;2.00;;;;;;;;5014336;28;47457;-69
2022/10/01 08:01:50;;;;;;;;;5.00;1.67;;;;;;;;4991189;28;45717;-69
2022/10/01 08:06:59;;;;;;;;;1.00;1.00;;;;;;;;5008992;28;45365;-69
2022/10/01 08:09:24;;;;;;;;;1.00;1.00;;;;;;;;5004664;28;46262;-68
2022/10/01 08:11:50;;;;;;;;;2.67;1.00;;;;;;;;5011839;28;45555;-69
2022/10/01 08:14:17;;;;;;;;;2.00;1.33;;;;;;;;5017905;28;45271;-70
2022/10/01 08:16:43;;;;;;;;;1.50;1.25;;;;;;;;5016506;28;45550;-69
2022/10/01 08:19:08;;;;;;;;;2.50;2.00;;;;;;;;5016990;28;46111;-69
2022/10/01 08:21:34;;;;;;;;;4.00;2.00;;;;;;;;5016970;28;45319;-69
2022/10/01 08:24:00;;;;;;;;;2.00;0.50;;;;;;;;5016088;28;45279;-70
2022/10/01 08:26:26;;;;;;;;;5.00;2.00;;;;;;;;5015212;28;45444;-69
2022/10/01 08:28:51;;;;;;;;;3.00;0.50;;;;;;;;5011579;28;45616;-69
2022/10/01 08:31:16;;;;;;;;;7.00;1.67;;;;;;;;5014991;28;45679;-69
2022/10/01 08:33:41;;;;;;;;;4.67;2.00;;;;;;;;5015063;28;45576;-69
2022/10/01 08:36:09;;;;;;;;;5.25;1.00;;;;;;;;5017839;28;45348;-71
2022/10/01 08:38:35;;;;;;;;;1.50;1.50;;;;;;;;5016631;28;46258;-68
2022/10/01 08:41:06;;;;;;;;;5.50;1.50;;;;;;;;5011092;28;45399;-68
2022/10/01 08:43:33;;;;;;;;;5.33;2.33;;;;;;;;5016777;28;45445;-69
2022/10/01 08:46:00;;;;;;;;;1.25;0.50;;;;;;;;5000936;28;45383;-69
2022/10/01 08:48:25;;;;;;;;;3.33;2.33;;;;;;;;5018927;28;46236;-69
2022/10/01 08:51:02;;;;;;;;;4.00;2.00;;;;;;;;5019256;28;45518;-69
2022/10/01 08:53:59;;;;;;;;;1.00;1.00;;;;;;;;5019312;28;45448;-70
2022/10/01 08:56:30;;;;;;;;;4.33;0.00;;;;;;;;4975591;28;45491;-69
2022/10/01 08:58:57;;;;;;;;;5.00;2.00;;;;;;;;5015387;28;46342;-69
2022/10/01 09:01:23;;;;;;;;;3.00;3.00;;;;;;;;5018226;28;45504;-69
2022/10/01 09:03:49;;;;;;;;;5.00;1.00;;;;;;;;5019634;28;45581;-69
2022/10/01 09:06:18;;;;;;;;;2.75;1.00;;;;;;;;5016173;28;45826;-69
2022/10/01 09:08:52;;;;;;;;;1.00;1.00;;;;;;;;5015019;28;45550;-69
2022/10/01 09:11:21;;;;;;;;;3.00;3.00;;;;;;;;4997140;28;45499;-69
2022/10/01 09:13:56;;;;;;;;;5.00;2.00;;;;;;;;5018110;28;45483;-70
2022/10/01 09:16:36;;;;;;;;;3.50;2.00;;;;;;;;5014407;28;45460;-69
2022/10/01 09:19:04;;;;;;;;;5.33;2.67;;;;;;;;5017741;28;45524;-68
2022/10/01 09:21:42;;;;;;;;;8.00;3.33;;;;;;;;5017664;28;45459;-69
2022/10/01 09:24:14;;;;;;;;;2.50;2.50;;;;;;;;5016592;28;45604;-70
2022/10/01 09:26:42;;;;;;;;;2.67;1.67;;;;;;;;5016364;28;45566;-69
2022/10/01 09:29:12;;;;;;;;;10.00;3.00;;;;;;;;5012546;28;46441;-70
2022/10/01 09:31:46;;;;;;;;;6.67;3.00;;;;;;;;5016077;28;45419;-70
2022/10/01 09:34:12;;;;;;;;;7.33;4.00;;;;;;;;5015006;28;45569;-69
2022/10/01 09:36:57;;;;;;;;;2.33;2.33;;;;;;;;5020174;28;45479;-78
2022/10/01 09:39:42;;;;;;;;;2.00;2.00;;;;;;;;5019188;28;45494;-68
2022/10/01 09:42:08;;;;;;;;;5.00;3.33;;;;;;;;5012075;28;45465;-69
2022/10/01 09:44:33;;;;;;;;;4.67;3.00;;;;;;;;5025096;28;45510;-69
2022/10/01 09:46:59;;;;;;;;;3.50;2.00;;;;;;;;4999669;28;45515;-70
2022/10/01 09:49:38;;;;;;;;;1.00;1.00;;;;;;;;5022061;28;46024;-69
2022/10/01 09:52:07;;;;;;;;;4.00;2.00;;;;;;;;5014947;28;45436;-68
2022/10/01 09:54:42;;;;;;;;;3.00;3.00;;;;;;;;4992923;28;45463;-67
2022/10/01 09:57:27;;;;;;;;;4.00;4.00;;;;;;;;5016438;28;45511;-67
2022/10/01 10:00:02;;;;;;;;;11.67;5.00;;;;;;;;4992609;28;46652;-66
2022/10/01 10:02:31;;;;;;;;;5.00;3.00;;;;;;;;5009951;28;45587;-68
2022/10/01 10:05:00;;;;;;;;;5.25;2.25;;;;;;;;5004952;28;45400;-68
2022/10/01 10:07:27;;;;;;;;;9.00;3.33;;;;;;;;5009469;28;46910;-68
2022/10/01 10:09:53;;;;;;;;;4.50;3.00;;;;;;;;5004705;28;46195;-70
2022/10/01 10:12:30;;;;;;;;;4.33;2.33;;;;;;;;4991365;28;45624;-68
2022/10/01 10:15:04;;;;;;;;;5.25;3.25;;;;;;;;5010388;28;45527;-68
2022/10/01 10:17:29;;;;;;;;;3.25;3.00;;;;;;;;5011173;28;45368;-69
2022/10/01 10:19:54;;;;;;;;;5.00;3.00;;;;;;;;5009170;28;45373;-69
2022/10/01 10:22:23;;;;;;;;;3.00;2.00;;;;;;;;5014428;28;45415;-69
2022/10/01 10:24:49;;;;;;;;;6.25;2.00;;;;;;;;5010983;28;45350;-68
2022/10/01 10:27:25;;;;;;;;;2.00;2.00;;;;;;;;5008764;28;45359;-69
2022/10/01 10:30:00;;;;;;;;;5.00;5.00;;;;;;;;5008329;28;46112;-69
2022/10/01 10:32:26;;;;;;;;;7.00;3.50;;;;;;;;5015589;28;45727;-70
2022/10/01 10:34:54;;;;;;;;;4.50;3.00;;;;;;;;5009400;28;45290;-69
2022/10/01 10:37:24;;;;;;;;;3.50;3.50;;;;;;;;5015349;28;45422;-68
2022/10/01 10:39:51;;;;;;;;;6.50;3.00;;;;;;;;5009943;28;45379;-69
2022/10/01 10:42:17;;;;;;;;;5.00;3.25;;;;;;;;5008914;28;45525;-69
2022/10/01 10:44:45;;;;;;;;;18.00;15.00;;;;;;;;5016375;28;45357;-70
2022/10/01 10:47:13;;;;;;;;;8.75;5.50;;;;;;;;5006736;28;45489;-69
2022/10/01 10:49:51;;;;;;;;;3.75;3.50;;;;;;;;5007631;28;45361;-68
2022/10/01 10:52:31;;;;;;;;;4.25;3.00;;;;;;;;5010296;28;45352;-69
2022/10/01 10:54:57;;;;;;;;;4.75;2.00;;;;;;;;5011541;28;45764;-68
2022/10/01 10:57:29;;;;;;;;;3.25;2.00;;;;;;;;5012827;28;45613;-69
2022/10/01 10:59:56;;;;;;;;;1.75;1.75;;;;;;;;5004956;28;46238;-69
2022/10/01 11:02:24;;;;;;;;;3.25;2.00;;;;;;;;5012804;28;45743;-67
2022/10/01 11:04:49;;;;;;;;;2.00;2.00;;;;;;;;5011156;28;45462;-69
2022/10/01 11:07:18;;;;;;;;;6.25;2.75;;;;;;;;5007962;28;45542;-69
2022/10/01 11:10:02;;;;;;;;;3.25;2.00;;;;;;;;5013589;28;45438;-69
2022/10/01 11:12:46;;;;;;;;;1.75;1.75;;;;;;;;5007635;28;45484;-70
2022/10/01 11:15:20;;;;;;;;;4.00;2.00;;;;;;;;5007787;28;45410;-69
2022/10/01 11:17:56;;;;;;;;;2.75;1.00;;;;;;;;5009206;28;45363;-69
2022/10/01 11:20:21;;;;;;;;;3.75;3.00;;;;;;;;5014331;28;46059;-69
2022/10/01 11:23:10;;;;;;;;;3.00;2.00;;;;;;;;5013229;28;45367;-69
2022/10/01 11:25:43;;;;;;;;;3.25;1.75;;;;;;;;5009699;28;45533;-68
2022/10/01 11:28:09;;;;;;;;;1.75;1.00;;;;;;;;5015267;28;45508;-69
2022/10/01 11:30:45;;;;;;;;;3.00;2.00;;;;;;;;5027816;28;45919;-70
2022/10/01 11:33:34;;;;;;;;;2.00;2.00;;;;;;;;5012117;28;45486;-68
2022/10/01 11:36:03;;;;;;;;;3.00;1.00;;;;;;;;5002811;28;45334;-68
2022/10/01 11:38:49;;;;;;;;;3.25;1.50;;;;;;;;5015061;28;45583;-68
2022/10/01 11:41:15;;;;;;;;;1.75;1.75;;;;;;;;5009140;28;46283;-68
2022/10/01 11:43:50;;;;;;;;;3.00;1.75;;;;;;;;5011692;28;45381;-68
2022/10/01 11:46:26;;;;;;;;;4.00;2.00;;;;;;;;5007697;28;45321;-69
2022/10/01 11:48:52;;;;;;;;;3.50;2.00;;;;;;;;5007216;28;45701;-66
2022/10/01 11:51:24;;;;;;;;;3.25;1.50;;;;;;;;5009487;28;46217;-67
2022/10/01 11:53:53;;;;;;;;;1.00;1.00;;;;;;;;5013177;28;45296;-66
2022/10/01 11:59:09;;;;;;;;;2.00;1.00;;;;;;;;5009584;28;45480;-68
2022/10/01 12:01:53;;;;;;;;;2.25;2.00;;;;;;;;5016200;28;45500;-68
2022/10/01 12:04:34;;;;;;;;;1.00;1.00;;;;;;;;5014183;28;45551;-68
2022/10/01 12:07:19;;;;;;;;;3.50;1.25;;;;;;;;5012423;28;45520;-68
2022/10/01 12:09:44;;;;;;;;;2.00;2.00;;;;;;;;5009451;28;45588;-68
2022/10/01 12:12:14;;;;;;;;;2.25;1.00;;;;;;;;5019076;28;45474;-68
2022/10/01 12:15:02;;;;;;;;;1.75;1.75;;;;;;;;5014612;28;45497;-68
2022/10/01 12:17:34;;;;;;;;;0.50;0.50;;;;;;;;5015578;28;45491;-68
2022/10/01 12:20:03;;;;;;;;;0.75;0.50;;;;;;;;5012191;28;45539;-68
2022/10/01 12:22:31;;;;;;;;;0.00;0.00;;;;;;;;5019560;28;46347;-69
2022/10/01 12:24:56;;;;;;;;;0.75;0.75;;;;;;;;5020635;28;45555;-68
2022/10/01 12:27:40;;;;;;;;;2.00;1.00;;;;;;;;5015642;28;45527;-69
2022/10/01 12:30:08;;;;;;;;;1.25;0.00;;;;;;;;5013682;28;45802;-69
2022/10/01 12:32:51;;;;;;;;;1.00;1.00;;;;;;;;5018734;28;46078;-69
2022/10/01 12:35:35;;;;;;;;;1.00;0.20;;;;;;;;5019142;28;45398;-69
2022/10/01 12:38:07;;;;;;;;;2.25;1.00;;;;;;;;5023882;28;45521;-69
2022/10/01 12:40:40;;;;;;;;;3.75;2.00;;;;;;;;5010116;28;45613;-69
2022/10/01 12:43:09;;;;;;;;;2.75;1.25;;;;;;;;5012622;28;46253;-69
2022/10/01 12:45:54;;;;;;;;;0.50;0.50;;;;;;;;5019674;28;45336;-69
2022/10/01 12:48:38;;;;;;;;;2.25;1.00;;;;;;;;5014851;28;45444;-69
2022/10/01 12:51:03;;;;;;;;;2.75;2.00;;;;;;;;5019416;28;45436;-69
2022/10/01 12:53:37;;;;;;;;;2.00;0.00;;;;;;;;5015162;28;45573;-69
2022/10/01 12:56:22;;;;;;;;;1.00;1.00;;;;;;;;5013351;28;45441;-69
2022/10/01 12:58:48;;;;;;;;;3.00;1.00;;;;;;;;5016700;28;45475;-69
2022/10/01 13:01:13;;;;;;;;;3.00;0.75;;;;;;;;5017916;28;45456;-69
2022/10/01 13:03:57;;;;;;;;;2.75;0.75;;;;;;;;5000366;28;45618;-68
2022/10/01 13:06:34;;;;;;;;;3.00;3.00;;;;;;;;5020147;28;45477;-69
2022/10/01 13:09:20;;;;;;;;;3.50;2.00;;;;;;;;5011453;28;45249;-69
2022/10/01 13:12:01;;;;;;;;;5.75;1.00;;;;;;;;5013904;28;45525;-68
2022/10/01 13:14:28;;;;;;;;;3.25;2.25;;;;;;;;5007024;28;45652;-69
2022/10/01 13:17:01;;;;;;;;;1.25;1.25;;;;;;;;5011285;28;45485;-69
2022/10/01 13:19:33;;;;;;;;;2.25;1.00;;;;;;;;5008660;28;45404;-69
2022/10/01 13:22:07;;;;;;;;;2.50;1.75;;;;;;;;5009715;28;45508;-69
2022/10/01 13:24:38;;;;;;;;;2.25;2.25;;;;;;;;5012577;28;46377;-68
2022/10/01 13:27:12;;;;;;;;;3.00;2.25;;;;;;;;5010918;28;45929;-68
2022/10/01 13:29:40;;;;;;;;;2.00;1.00;;;;;;;;5015199;28;45471;-68
2022/10/01 13:32:24;;;;;;;;;0.25;0.00;;;;;;;;5016179;28;45431;-68
2022/10/01 13:34:50;;;;;;;;;1.00;1.00;;;;;;;;5016710;28;45310;-69
2022/10/01 13:37:30;;;;;;;;;3.00;1.75;;;;;;;;5017840;28;45355;-69
2022/10/01 13:39:56;;;;;;;;;3.25;3.00;;;;;;;;5007886;28;45493;-67
2022/10/01 13:42:24;;;;;;;;;1.50;1.50;;;;;;;;5013811;28;45704;-69
2022/10/01 13:44:55;;;;;;;;;4.25;1.50;;;;;;;;5013508;28;46315;-70
2022/10/01 13:47:21;;;;;;;;;2.25;1.00;;;;;;;;5011735;28;45447;-69
2022/10/01 13:50:13;;;;;;;;;1.50;1.50;;;;;;;;5011810;28;45493;-69
2022/10/01 13:52:38;;;;;;;;;2.50;1.00;;;;;;;;4997998;28;46256;-69
2022/10/01 13:55:03;;;;;;;;;4.00;1.00;;;;;;;;5011924;28;45891;-70
2022/10/01 13:57:28;;;;;;;;;6.75;1.50;;;;;;;;5015582;28;45446;-69
2022/10/01 13:59:57;;;;;;;;;2.00;2.00;;;;;;;;5004093;28;45227;-69
2022/10/01 14:02:49;;;;;;;;;3.00;1.75;;;;;;;;5013234;28;45590;-68
2022/10/01 14:05:24;;;;;;;;;6.25;3.00;;;;;;;;5009080;28;46072;-68
2022/10/01 14:07:54;;;;;;;;;3.25;1.00;;;;;;;;5016950;28;45712;-69
2022/10/01 14:10:20;;;;;;;;;1.50;1.00;;;;;;;;5009709;28;47344;-69
2022/10/01 14:16:01;;;;;;;;;4.00;2.00;;;;;;;;5011780;28;45951;-69
2022/10/01 14:18:32;;;;;;;;;3.00;1.75;;;;;;;;5003824;28;45832;-68
2022/10/01 14:21:00;;;;;;;;;1.25;1.25;;;;;;;;5011008;28;45538;-68
2022/10/01 14:23:55;;;;;;;;;1.00;1.00;;;;;;;;5013466;28;45825;-69
2022/10/01 14:26:32;;;;;;;;;1.00;1.00;;;;;;;;4994574;28;45693;-69
2022/10/01 14:28:57;;;;;;;;;2.25;1.00;;;;;;;;5014463;28;45458;-68
2022/10/01 14:31:22;;;;;;;;;1.00;1.00;;;;;;;;5010925;28;45565;-69
2022/10/01 14:34:06;;;;;;;;;3.25;1.00;;;;;;;;5013337;28;45211;-68
2022/10/01 14:36:33;;;;;;;;;8.00;2.00;;;;;;;;4995950;28;46354;-69
2022/10/01 14:39:18;;;;;;;;;5.25;2.50;;;;;;;;4999594;28;46207;-68
2022/10/01 14:41:44;;;;;;;;;0.50;0.50;;;;;;;;5011557;28;45407;-69
2022/10/01 14:44:19;;;;;;;;;1.00;0.50;;;;;;;;4997566;28;47003;-69
2022/10/01 14:46:45;;;;;;;;;1.00;1.00;;;;;;;;5009527;28;46227;-69
2022/10/01 14:49:20;;;;;;;;;2.00;1.50;;;;;;;;5013840;28;45466;-68
2022/10/01 14:51:53;;;;;;;;;2.00;2.00;;;;;;;;5012293;28;45412;-69
2022/10/01 14:54:19;;;;;;;;;3.00;1.00;;;;;;;;5009961;28;45877;-69
2022/10/01 14:56:44;;;;;;;;;1.25;1.00;;;;;;;;4992821;28;46376;-69
2022/10/01 14:59:15;;;;;;;;;3.00;0.25;;;;;;;;5006207;28;45348;-69
2022/10/01 15:01:40;;;;;;;;;1.00;1.00;;;;;;;;5015206;28;45419;-69
2022/10/01 15:04:20;;;;;;;;;4.00;0.75;;;;;;;;5015202;28;45230;-68
2022/10/01 15:06:45;;;;;;;;;2.00;1.00;;;;;;;;5009862;28;46252;-70
2022/10/01 15:09:13;;;;;;;;;2.50;1.00;;;;;;;;5005821;28;45306;-71
2022/10/01 15:11:39;;;;;;;;;0.75;0.75;;;;;;;;5002689;28;45672;-69
2022/10/01 15:14:07;;;;;;;;;1.25;1.00;;;;;;;;5012756;28;45551;-69
2022/10/01 15:16:34;;;;;;;;;4.00;2.00;;;;;;;;5012627;28;47184;-67
2022/10/01 15:19:00;;;;;;;;;5.75;4.50;;;;;;;;5009831;28;45541;-68
2022/10/01 15:21:35;;;;;;;;;1.25;1.25;;;;;;;;5015702;28;45695;-67
2022/10/01 15:24:03;;;;;;;;;1.25;1.25;;;;;;;;4992109;28;45459;-68
2022/10/01 15:26:29;;;;;;;;;1.50;1.50;;;;;;;;5013883;28;46229;-68
2022/10/01 15:29:02;;;;;;;;;3.00;0.75;;;;;;;;4997062;28;45637;-68
2022/10/01 15:31:28;;;;;;;;;1.75;1.75;;;;;;;;5006153;28;45495;-68
2022/10/01 15:33:53;;;;;;;;;1.00;1.00;;;;;;;;5005754;28;45435;-68
2022/10/01 15:36:18;;;;;;;;;1.00;1.00;;;;;;;;5015355;28;45748;-69
2022/10/01 15:38:45;;;;;;;;;4.75;1.50;;;;;;;;5013906;28;46086;-69
2022/10/01 15:41:20;;;;;;;;;1.75;1.00;;;;;;;;5004311;28;45749;-69
2022/10/01 15:43:46;;;;;;;;;5.00;1.25;;;;;;;;5009445;28;46039;-69
2022/10/01 15:46:31;;;;;;;;;1.25;1.25;;;;;;;;5007911;28;46605;-68
2022/10/01 15:49:15;;;;;;;;;1.25;1.25;;;;;;;;5013009;28;45671;-68
2022/10/01 15:52:48;;;;;;;;;2.00;2.00;;;;;;;;5008516;28;45471;-68
2022/10/01 15:54:32;;;;;;;;;4.75;1.00;;;;;;;;5012395;28;45513;-68
2022/10/01 15:56:58;;;;;;;;;1.00;1.00;;;;;;;;5013521;28;46210;-68
2022/10/01 15:59:23;;;;;;;;;5.25;2.00;;;;;;;;5010751;28;45416;-69
2022/10/01 16:01:48;;;;;;;;;6.00;3.00;;;;;;;;5013436;28;45397;-69
2022/10/01 16:04:13;;;;;;;;;3.25;2.00;;;;;;;;5006671;28;45681;-68
2022/10/01 16:06:43;;;;;;;;;2.75;1.00;;;;;;;;5016177;28;46094;-69
2022/10/01 16:09:12;;;;;;;;;5.00;1.75;;;;;;;;5008344;28;45397;-68
2022/10/01 16:11:55;;;;;;;;;5.75;2.00;;;;;;;;5010975;28;45537;-68
2022/10/01 16:14:41;;;;;;;;;2.25;1.50;;;;;;;;4998707;28;45494;-69
2022/10/01 16:17:16;;;;;;;;;2.67;1.00;;;;;;;;5011951;28;46048;-68
2022/10/01 16:19:42;;;;;;;;;4.00;2.75;;;;;;;;5012661;28;45508;-69
2022/10/01 16:22:17;;;;;;;;;3.75;2.00;;;;;;;;5014501;28;45524;-68
2022/10/01 16:24:44;;;;;;;;;2.75;2.25;;;;;;;;5010138;28;45536;-69
2022/10/01 16:27:12;;;;;;;;;4.50;1.00;;;;;;;;5012075;28;46144;-69
2022/10/01 16:29:38;;;;;;;;;4.25;1.75;;;;;;;;5014680;28;45935;-68
2022/10/01 16:32:03;;;;;;;;;1.00;1.00;;;;;;;;5009721;28;45278;-69
2022/10/01 16:34:28;;;;;;;;;1.75;1.00;;;;;;;;5004396;28;45452;-68
2022/10/01 16:36:54;;;;;;;;;2.00;2.00;;;;;;;;5013201;28;46247;-68
2022/10/01 16:39:19;;;;;;;;;1.00;1.00;;;;;;;;5010316;28;45380;-68
2022/10/01 16:41:46;;;;;;;;;1.00;1.00;;;;;;;;5016299;28;45530;-68
2022/10/01 16:44:12;;;;;;;;;3.50;1.00;;;;;;;;5012966;28;45404;-68
2022/10/01 16:46:37;;;;;;;;;3.00;2.00;;;;;;;;5010130;28;46156;-68
2022/10/01 16:49:13;;;;;;;;;2.00;2.00;;;;;;;;5015785;28;45475;-68
2022/10/01 16:51:39;;;;;;;;;4.25;2.00;;;;;;;;4996851;28;45726;-68
2022/10/01 16:54:08;;;;;;;;;3.00;1.00;;;;;;;;5015066;28;45356;-68
2022/10/01 16:56:34;;;;;;;;;2.00;1.00;;;;;;;;5016024;28;46376;-68
2022/10/01 16:58:59;;;;;;;;;2.50;2.50;;;;;;;;5013339;28;45716;-68
2022/10/01 17:01:25;;;;;;;;;4.25;1.75;;;;;;;;4987627;28;45632;-68
2022/10/01 17:03:50;;;;;;;;;2.00;1.25;;;;;;;;5019451;28;45740;-68
2022/10/01 17:06:15;;;;;;;;;1.25;1.00;;;;;;;;5017897;28;46045;-67
2022/10/01 17:08:41;;;;;;;;;3.50;2.00;;;;;;;;5015831;28;45537;-67
2022/10/01 17:11:08;;;;;;;;;3.00;1.75;;;;;;;;5016709;28;45556;-69
2022/10/01 17:13:33;;;;;;;;;1.00;1.00;;;;;;;;5017621;28;45458;-69
2022/10/01 17:15:59;;;;;;;;;4.00;2.00;;;;;;;;5013337;28;46028;-67
2022/10/01 17:18:25;;;;;;;;;2.00;1.50;;;;;;;;5015459;28;45524;-69
2022/10/01 17:20:50;;;;;;;;;1.50;1.00;;;;;;;;5015812;28;45663;-67
2022/10/01 17:23:17;;;;;;;;;1.50;0.50;;;;;;;;5017146;28;45806;-68
2022/10/01 17:25:43;;;;;;;;;2.00;2.00;;;;;;;;5017906;28;45316;-68
2022/10/01 17:28:13;;;;;;;;;1.75;1.00;;;;;;;;5009284;28;45396;-68
2022/10/01 17:30:39;;;;;;;;;4.33;3.00;;;;;;;;5017131;28;45485;-67
2022/10/01 17:33:05;;;;;;;;;4.67;3.00;;;;;;;;5013733;28;46248;-67
2022/10/01 17:35:31;;;;;;;;;3.00;3.00;;;;;;;;5016261;28;46865;-66
2022/10/01 17:37:57;;;;;;;;;3.00;2.00;;;;;;;;5016144;28;45557;-66
2022/10/01 17:40:22;;;;;;;;;3.33;1.67;;;;;;;;5018956;28;45269;-64
2022/10/01 17:42:47;;;;;;;;;2.00;1.75;;;;;;;;5009085;28;45369;-65
2022/10/01 17:45:13;;;;;;;;;4.33;3.00;;;;;;;;5013528;28;46843;-64
2022/10/01 17:47:45;;;;;;;;;3.50;1.25;;;;;;;;5008212;28;45288;-64
2022/10/01 17:50:10;;;;;;;;;4.00;2.33;;;;;;;;5004176;28;45781;-63
2022/10/01 17:52:35;;;;;;;;;5.00;3.00;;;;;;;;5007486;28;45396;-63
2022/10/01 17:55:01;;;;;;;;;4.00;3.00;;;;;;;;5014473;28;45742;-61
2022/10/01 17:57:26;;;;;;;;;5.00;3.33;;;;;;;;5016200;28;45451;-62
2022/10/01 17:59:51;;;;;;;;;2.67;2.00;;;;;;;;5011219;28;45594;-61
2022/10/01 18:02:16;;;;;;;;;3.33;3.33;;;;;;;;5011179;28;45589;-62
2022/10/01 18:04:45;;;;;;;;;5.67;3.00;;;;;;;;4999002;28;47152;-63
2022/10/01 18:07:10;;;;;;;;;5.67;4.67;;;;;;;;5014668;28;45431;-62
2022/10/01 18:09:36;;;;;;;;;4.00;4.00;;;;;;;;5017199;28;45629;-61
2022/10/01 18:12:02;;;;;;;;;7.33;3.33;;;;;;;;5022337;28;46456;-61
2022/10/01 18:14:27;;;;;;;;;5.67;4.33;;;;;;;;5018376;28;45460;-62
2022/10/01 18:16:52;;;;;;;;;4.00;1.00;;;;;;;;5017482;28;45675;-62
2022/10/01 18:19:17;;;;;;;;;6.00;3.00;;;;;;;;5016508;28;45502;-62
2022/10/01 18:21:43;;;;;;;;;5.00;4.00;;;;;;;;5012208;28;45709;-62
2022/10/01 18:24:08;;;;;;;;;4.00;2.67;;;;;;;;5011553;28;45293;-62
2022/10/01 18:26:33;;;;;;;;;2.00;2.00;;;;;;;;5010623;28;45503;-61
2022/10/01 18:28:59;;;;;;;;;2.00;2.00;;;;;;;;5016355;28;45441;-61
2022/10/01 18:31:25;;;;;;;;;4.00;1.67;;;;;;;;5017469;28;45475;-61
2022/10/01 18:33:54;;;;;;;;;4.67;4.00;;;;;;;;5012580;28;46266;-61
2022/10/01 18:36:38;;;;;;;;;5.67;2.67;;;;;;;;5014959;28;45557;-61
2022/10/01 18:39:05;;;;;;;;;6.33;3.00;;;;;;;;5014189;28;45348;-61
2022/10/01 18:41:35;;;;;;;;;3.33;2.33;;;;;;;;5017974;28;45475;-61
2022/10/01 18:44:00;;;;;;;;;4.67;3.33;;;;;;;;5014945;28;45887;-61
2022/10/01 18:46:33;;;;;;;;;1.00;1.00;;;;;;;;5000542;28;45693;-62
2022/10/01 18:49:20;;;;;;;;;5.33;3.00;;;;;;;;5011598;28;45818;-62
2022/10/01 18:51:52;;;;;;;;;4.33;3.00;;;;;;;;5016229;28;45474;-62
2022/10/01 18:54:37;;;;;;;;;5.00;4.67;;;;;;;;5008298;28;46131;-62
2022/10/01 18:57:02;;;;;;;;;4.00;4.00;;;;;;;;4957862;28;45760;-61
2022/10/01 18:59:37;;;;;;;;;8.33;6.00;;;;;;;;5017053;28;45487;-61
2022/10/01 19:02:18;;;;;;;;;5.67;5.67;;;;;;;;5016757;28;45514;-61
2022/10/01 19:04:49;;;;;;;;;9.33;6.33;;;;;;;;5023428;28;46413;-61
2022/10/01 19:07:14;;;;;;;;;7.00;6.00;;;;;;;;5021649;28;45384;-62
2022/10/01 19:09:43;;;;;;;;;4.67;4.33;;;;;;;;5018373;28;45519;-62
2022/10/01 19:12:17;;;;;;;;;7.33;6.33;;;;;;;;5018465;28;45498;-61
2022/10/01 19:14:45;;;;;;;;;6.00;4.67;;;;;;;;5017494;28;46163;-62
2022/10/01 19:17:11;;;;;;;;;5.33;5.00;;;;;;;;5024393;28;45706;-61
2022/10/01 19:19:42;;;;;;;;;5.00;4.00;;;;;;;;5015603;28;45621;-62
2022/10/01 19:22:19;;;;;;;;;9.33;5.00;;;;;;;;5012168;28;45331;-62
2022/10/01 19:24:50;;;;;;;;;6.33;5.33;;;;;;;;4992510;28;45579;-62
2022/10/01 19:27:19;;;;;;;;;6.67;4.00;;;;;;;;5015872;28;45505;-62
2022/10/01 19:30:02;;;;;;;;;7.00;5.67;;;;;;;;5016857;28;45289;-62
2022/10/01 19:32:43;;;;;;;;;7.33;5.67;;;;;;;;5021335;28;45836;-62
2022/10/01 19:35:37;;;;;;;;;5.33;4.00;;;;;;;;5011487;28;45530;-61
2022/10/01 19:38:11;;;;;;;;;4.00;3.00;;;;;;;;4996987;28;45498;-62
2022/10/01 19:40:42;;;;;;;;;4.00;2.00;;;;;;;;5016096;28;45432;-61
2022/10/01 19:43:14;;;;;;;;;3.00;3.00;;;;;;;;5012046;28;45509;-61
2022/10/01 19:45:45;;;;;;;;;5.33;3.00;;;;;;;;5017328;28;45733;-61
2022/10/01 19:48:15;;;;;;;;;8.00;4.67;;;;;;;;5009129;28;45404;-61
2022/10/01 19:50:43;;;;;;;;;6.00;3.67;;;;;;;;5010053;28;45297;-62
2022/10/01 19:53:14;;;;;;;;;4.67;3.33;;;;;;;;5009097;28;45563;-62
2022/10/01 19:55:39;;;;;;;;;5.33;5.00;;;;;;;;5016785;28;46407;-62
2022/10/01 19:58:12;;;;;;;;;9.00;5.00;;;;;;;;5011706;28;45447;-61
2022/10/01 20:00:37;;;;;;;;;6.67;6.33;;;;;;;;5016683;28;45835;-62
2022/10/01 20:03:04;;;;;;;;;4.33;4.33;;;;;;;;5019040;28;45482;-62
2022/10/01 20:05:40;;;;;;;;;6.33;6.00;;;;;;;;5008364;28;46153;-60
2022/10/01 20:08:27;;;;;;;;;8.67;5.00;;;;;;;;5009508;28;45496;-62
2022/10/01 20:10:54;;;;;;;;;3.00;1.33;;;;;;;;5014978;28;46920;-61
2022/10/01 20:13:25;;;;;;;;;5.00;5.00;;;;;;;;5016531;28;46314;-60
2022/10/01 20:15:56;;;;;;;;;9.00;4.00;;;;;;;;5013621;28;45424;-61
2022/10/01 20:18:36;;;;;;;;;6.00;6.00;;;;;;;;5010718;28;45443;-61
2022/10/01 20:21:22;;;;;;;;;5.67;4.00;;;;;;;;5016061;28;45431;-61
2022/10/01 20:23:47;;;;;;;;;6.33;5.00;;;;;;;;5018062;28;45313;-61
2022/10/01 20:26:18;;;;;;;;;6.00;4.67;;;;;;;;5015230;28;46374;-62
2022/10/01 20:29:02;;;;;;;;;6.00;5.00;;;;;;;;5012845;28;45411;-62
2022/10/01 20:31:50;;;;;;;;;5.33;5.00;;;;;;;;5015706;28;45502;-61
2022/10/01 20:34:35;;;;;;;;;6.00;4.00;;;;;;;;4971816;28;45392;-61
2022/10/01 20:37:19;;;;;;;;;7.00;4.67;;;;;;;;5022904;28;45996;-61
2022/10/01 20:39:49;;;;;;;;;5.00;4.00;;;;;;;;5012568;28;45491;-62
2022/10/01 20:42:22;;;;;;;;;3.33;3.33;;;;;;;;5014389;28;45427;-61
2022/10/01 20:44:49;;;;;;;;;6.00;4.67;;;;;;;;5022025;28;45431;-61
2022/10/01 20:47:20;;;;;;;;;5.33;4.00;;;;;;;;5026750;28;46255;-61
2022/10/01 20:49:48;;;;;;;;;7.00;4.33;;;;;;;;5017269;28;45580;-61
2022/10/01 20:52:23;;;;;;;;;5.00;3.33;;;;;;;;5023653;28;45444;-62
2022/10/01 20:54:56;;;;;;;;;5.00;3.33;;;;;;;;5021697;28;45314;-61
2022/10/01 20:57:23;;;;;;;;;3.33;3.00;;;;;;;;5024174;28;46184;-61
2022/10/01 20:59:50;;;;;;;;;11.00;5.00;;;;;;;;5013599;28;45365;-61
2022/10/01 21:02:18;;;;;;;;;6.67;6.00;;;;;;;;5017756;28;45416;-61
2022/10/01 21:04:48;;;;;;;;;5.00;3.67;;;;;;;;5011808;28;45451;-61
2022/10/01 21:07:16;;;;;;;;;4.00;3.00;;;;;;;;5015779;28;46519;-61
2022/10/01 21:09:44;;;;;;;;;5.00;2.00;;;;;;;;5016713;28;45259;-61
2022/10/01 21:12:17;;;;;;;;;6.00;2.33;;;;;;;;5015003;28;45761;-62